sensor_id;sensor_type;location;lat;lon;timestamp;P1;durP1;ratioP1;P2;durP2;ratioP2
4726;SDS011;2377;51.734;8.950;2024-01-07T00:02:18;27.40;;;13.80;;
4726;SDS011;2377;51.734;8.950;2024-01-07T00:04:46;33.40;;;15.63;;
4726;SDS011;2377;51.734;8.950;2024-01-07T00:07:14;43.30;;;18.47;;
4726;SDS011;2377;51.734;8.950;2024-01-07T00:09:41;29.30;;;15.33;;
4726;SDS011;2377;51.734;8.950;2024-01-07T00:12:08;29.67;;;15.83;;
4726;SDS011;2377;51.734;8.950;2024-01-07T00:14:35;34.23;;;16.67;;
4726;SDS011;2377;51.734;8.950;2024-01-07T00:17:03;30.53;;;14.87;;
4726;SDS011;2377;51.734;8.950;2024-01-07T00:19:30;46.77;;;17.00;;
4726;SDS011;2377;51.734;8.950;2024-01-07T00:21:57;38.20;;;18.17;;
4726;SDS011;2377;51.734;8.950;2024-01-07T00:24:25;33.20;;;16.93;;
4726;SDS011;2377;51.734;8.950;2024-01-07T00:26:54;46.03;;;21.97;;
4726;SDS011;2377;51.734;8.950;2024-01-07T00:29:21;45.13;;;19.27;;
4726;SDS011;2377;51.734;8.950;2024-01-07T00:31:48;30.93;;;16.47;;
4726;SDS011;2377;51.734;8.950;2024-01-07T00:34:18;42.80;;;20.40;;
4726;SDS011;2377;51.734;8.950;2024-01-07T00:36:45;39.90;;;18.73;;
4726;SDS011;2377;51.734;8.950;2024-01-07T00:39:12;36.63;;;19.30;;
4726;SDS011;2377;51.734;8.950;2024-01-07T00:41:41;32.97;;;16.90;;
4726;SDS011;2377;51.734;8.950;2024-01-07T00:44:08;32.90;;;18.10;;
4726;SDS011;2377;51.734;8.950;2024-01-07T00:46:35;31.33;;;17.73;;
4726;SDS011;2377;51.734;8.950;2024-01-07T00:49:02;33.20;;;18.53;;
4726;SDS011;2377;51.734;8.950;2024-01-07T00:51:29;31.10;;;17.43;;
4726;SDS011;2377;51.734;8.950;2024-01-07T00:53:56;27.40;;;16.63;;
4726;SDS011;2377;51.734;8.950;2024-01-07T00:56:25;28.93;;;15.87;;
4726;SDS011;2377;51.734;8.950;2024-01-07T00:58:53;27.63;;;15.77;;
4726;SDS011;2377;51.734;8.950;2024-01-07T01:01:20;26.60;;;15.70;;
4726;SDS011;2377;51.734;8.950;2024-01-07T01:03:48;25.23;;;15.70;;
4726;SDS011;2377;51.734;8.950;2024-01-07T01:06:15;33.07;;;17.70;;
4726;SDS011;2377;51.734;8.950;2024-01-07T01:08:42;31.27;;;17.70;;
4726;SDS011;2377;51.734;8.950;2024-01-07T01:11:09;28.30;;;16.23;;
4726;SDS011;2377;51.734;8.950;2024-01-07T01:13:36;33.60;;;18.13;;
4726;SDS011;2377;51.734;8.950;2024-01-07T01:16:05;24.40;;;14.63;;
4726;SDS011;2377;51.734;8.950;2024-01-07T01:18:32;25.07;;;14.40;;
4726;SDS011;2377;51.734;8.950;2024-01-07T01:20:59;25.73;;;15.80;;
4726;SDS011;2377;51.734;8.950;2024-01-07T01:23:26;28.43;;;15.80;;
4726;SDS011;2377;51.734;8.950;2024-01-07T01:25:53;27.87;;;15.27;;
4726;SDS011;2377;51.734;8.950;2024-01-07T01:28:20;20.53;;;13.30;;
4726;SDS011;2377;51.734;8.950;2024-01-07T01:30:48;21.40;;;14.43;;
4726;SDS011;2377;51.734;8.950;2024-01-07T01:33:16;19.90;;;12.30;;
4726;SDS011;2377;51.734;8.950;2024-01-07T01:35:43;30.53;;;17.53;;
4726;SDS011;2377;51.734;8.950;2024-01-07T01:38:10;21.50;;;14.50;;
4726;SDS011;2377;51.734;8.950;2024-01-07T01:40:37;24.67;;;14.97;;
4726;SDS011;2377;51.734;8.950;2024-01-07T01:43:05;24.40;;;14.47;;
4726;SDS011;2377;51.734;8.950;2024-01-07T01:45:35;24.47;;;14.20;;
4726;SDS011;2377;51.734;8.950;2024-01-07T01:48:02;26.27;;;15.33;;
4726;SDS011;2377;51.734;8.950;2024-01-07T01:50:31;25.23;;;12.77;;
4726;SDS011;2377;51.734;8.950;2024-01-07T01:52:58;22.27;;;14.20;;
4726;SDS011;2377;51.734;8.950;2024-01-07T01:55:26;24.03;;;14.17;;
4726;SDS011;2377;51.734;8.950;2024-01-07T01:57:53;22.20;;;13.87;;
4726;SDS011;2377;51.734;8.950;2024-01-07T02:00:24;22.33;;;13.10;;
4726;SDS011;2377;51.734;8.950;2024-01-07T02:02:52;20.83;;;12.50;;
4726;SDS011;2377;51.734;8.950;2024-01-07T02:05:19;23.60;;;13.60;;
4726;SDS011;2377;51.734;8.950;2024-01-07T02:07:48;19.03;;;13.00;;
4726;SDS011;2377;51.734;8.950;2024-01-07T02:10:17;26.83;;;15.70;;
4726;SDS011;2377;51.734;8.950;2024-01-07T02:12:44;17.80;;;11.97;;
4726;SDS011;2377;51.734;8.950;2024-01-07T02:15:12;27.20;;;14.80;;
4726;SDS011;2377;51.734;8.950;2024-01-07T02:17:39;27.23;;;15.40;;
4726;SDS011;2377;51.734;8.950;2024-01-07T02:20:07;27.90;;;14.23;;
4726;SDS011;2377;51.734;8.950;2024-01-07T02:22:35;26.83;;;15.00;;
4726;SDS011;2377;51.734;8.950;2024-01-07T02:25:03;26.17;;;14.03;;
4726;SDS011;2377;51.734;8.950;2024-01-07T02:27:31;29.70;;;16.80;;
4726;SDS011;2377;51.734;8.950;2024-01-07T02:29:58;29.33;;;16.37;;
4726;SDS011;2377;51.734;8.950;2024-01-07T02:32:25;26.87;;;15.60;;
4726;SDS011;2377;51.734;8.950;2024-01-07T02:34:52;24.00;;;14.13;;
4726;SDS011;2377;51.734;8.950;2024-01-07T02:37:19;24.10;;;14.70;;
4726;SDS011;2377;51.734;8.950;2024-01-07T02:39:46;19.83;;;12.63;;
4726;SDS011;2377;51.734;8.950;2024-01-07T02:42:15;25.00;;;14.80;;
4726;SDS011;2377;51.734;8.950;2024-01-07T02:44:42;19.00;;;12.37;;
4726;SDS011;2377;51.734;8.950;2024-01-07T02:47:09;20.10;;;12.67;;
4726;SDS011;2377;51.734;8.950;2024-01-07T02:49:36;20.60;;;12.13;;
4726;SDS011;2377;51.734;8.950;2024-01-07T02:52:04;25.53;;;14.57;;
4726;SDS011;2377;51.734;8.950;2024-01-07T02:54:31;19.40;;;12.77;;
4726;SDS011;2377;51.734;8.950;2024-01-07T02:56:58;23.43;;;13.90;;
4726;SDS011;2377;51.734;8.950;2024-01-07T02:59:27;20.43;;;13.07;;
4726;SDS011;2377;51.734;8.950;2024-01-07T03:01:54;22.47;;;13.97;;
4726;SDS011;2377;51.734;8.950;2024-01-07T03:04:21;22.73;;;13.70;;
4726;SDS011;2377;51.734;8.950;2024-01-07T03:06:48;24.80;;;14.53;;
4726;SDS011;2377;51.734;8.950;2024-01-07T03:09:15;20.07;;;12.20;;
4726;SDS011;2377;51.734;8.950;2024-01-07T03:11:42;23.60;;;14.83;;
4726;SDS011;2377;51.734;8.950;2024-01-07T03:14:09;26.57;;;15.83;;
4726;SDS011;2377;51.734;8.950;2024-01-07T03:16:38;22.53;;;14.07;;
4726;SDS011;2377;51.734;8.950;2024-01-07T03:19:06;24.37;;;13.37;;
4726;SDS011;2377;51.734;8.950;2024-01-07T03:21:33;25.83;;;14.57;;
4726;SDS011;2377;51.734;8.950;2024-01-07T03:24:00;31.53;;;16.13;;
4726;SDS011;2377;51.734;8.950;2024-01-07T03:26:29;26.87;;;14.73;;
4726;SDS011;2377;51.734;8.950;2024-01-07T03:28:57;25.77;;;13.47;;
4726;SDS011;2377;51.734;8.950;2024-01-07T03:31:27;25.97;;;14.20;;
4726;SDS011;2377;51.734;8.950;2024-01-07T03:33:59;26.37;;;15.00;;
4726;SDS011;2377;51.734;8.950;2024-01-07T03:36:26;26.30;;;14.77;;
4726;SDS011;2377;51.734;8.950;2024-01-07T03:38:53;25.33;;;14.37;;
4726;SDS011;2377;51.734;8.950;2024-01-07T03:41:20;27.90;;;15.13;;
4726;SDS011;2377;51.734;8.950;2024-01-07T03:43:47;29.20;;;14.87;;
4726;SDS011;2377;51.734;8.950;2024-01-07T03:46:16;27.40;;;14.40;;
4726;SDS011;2377;51.734;8.950;2024-01-07T03:48:44;34.00;;;17.13;;
4726;SDS011;2377;51.734;8.950;2024-01-07T03:51:12;30.27;;;16.80;;
4726;SDS011;2377;51.734;8.950;2024-01-07T03:53:40;26.63;;;14.23;;
4726;SDS011;2377;51.734;8.950;2024-01-07T03:56:07;24.70;;;14.10;;
4726;SDS011;2377;51.734;8.950;2024-01-07T03:58:34;22.57;;;12.57;;
4726;SDS011;2377;51.734;8.950;2024-01-07T04:01:01;22.40;;;13.10;;
4726;SDS011;2377;51.734;8.950;2024-01-07T04:03:29;39.13;;;16.40;;
4726;SDS011;2377;51.734;8.950;2024-01-07T04:05:56;26.70;;;15.03;;
4726;SDS011;2377;51.734;8.950;2024-01-07T04:08:27;26.27;;;13.70;;
4726;SDS011;2377;51.734;8.950;2024-01-07T04:10:55;21.03;;;13.13;;
4726;SDS011;2377;51.734;8.950;2024-01-07T04:13:22;21.83;;;13.43;;
4726;SDS011;2377;51.734;8.950;2024-01-07T04:15:49;24.77;;;15.13;;
4726;SDS011;2377;51.734;8.950;2024-01-07T04:18:16;26.57;;;14.10;;
4726;SDS011;2377;51.734;8.950;2024-01-07T04:20:43;26.87;;;13.80;;
4726;SDS011;2377;51.734;8.950;2024-01-07T04:23:10;23.17;;;14.03;;
4726;SDS011;2377;51.734;8.950;2024-01-07T04:25:38;17.47;;;11.67;;
4726;SDS011;2377;51.734;8.950;2024-01-07T04:28:07;18.87;;;11.83;;
4726;SDS011;2377;51.734;8.950;2024-01-07T04:30:34;21.10;;;12.40;;
4726;SDS011;2377;51.734;8.950;2024-01-07T04:33:02;17.90;;;11.30;;
4726;SDS011;2377;51.734;8.950;2024-01-07T04:35:29;14.53;;;9.80;;
4726;SDS011;2377;51.734;8.950;2024-01-07T04:37:56;17.13;;;10.60;;
4726;SDS011;2377;51.734;8.950;2024-01-07T04:40:23;14.80;;;9.17;;
4726;SDS011;2377;51.734;8.950;2024-01-07T04:42:52;16.20;;;10.80;;
4726;SDS011;2377;51.734;8.950;2024-01-07T04:45:19;13.97;;;9.13;;
4726;SDS011;2377;51.734;8.950;2024-01-07T04:47:46;14.37;;;8.50;;
4726;SDS011;2377;51.734;8.950;2024-01-07T04:50:13;12.33;;;8.70;;
4726;SDS011;2377;51.734;8.950;2024-01-07T04:52:44;11.27;;;7.47;;
4726;SDS011;2377;51.734;8.950;2024-01-07T04:55:11;12.70;;;8.80;;
4726;SDS011;2377;51.734;8.950;2024-01-07T04:57:39;11.50;;;6.70;;
4726;SDS011;2377;51.734;8.950;2024-01-07T05:00:07;12.47;;;8.43;;
4726;SDS011;2377;51.734;8.950;2024-01-07T05:02:36;14.13;;;8.30;;
4726;SDS011;2377;51.734;8.950;2024-01-07T05:05:04;12.43;;;7.53;;
4726;SDS011;2377;51.734;8.950;2024-01-07T05:07:34;11.27;;;7.20;;
4726;SDS011;2377;51.734;8.950;2024-01-07T05:10:01;10.83;;;7.33;;
4726;SDS011;2377;51.734;8.950;2024-01-07T05:12:28;13.97;;;8.27;;
4726;SDS011;2377;51.734;8.950;2024-01-07T05:14:56;8.00;;;5.97;;
4726;SDS011;2377;51.734;8.950;2024-01-07T05:17:24;10.77;;;7.40;;
4726;SDS011;2377;51.734;8.950;2024-01-07T05:19:51;8.83;;;6.70;;
4726;SDS011;2377;51.734;8.950;2024-01-07T05:22:18;9.37;;;6.67;;
4726;SDS011;2377;51.734;8.950;2024-01-07T05:24:45;9.00;;;6.70;;
4726;SDS011;2377;51.734;8.950;2024-01-07T05:27:12;12.13;;;7.90;;
4726;SDS011;2377;51.734;8.950;2024-01-07T05:29:39;10.90;;;7.67;;
4726;SDS011;2377;51.734;8.950;2024-01-07T05:32:12;13.63;;;8.70;;
4726;SDS011;2377;51.734;8.950;2024-01-07T05:34:40;18.00;;;10.17;;
4726;SDS011;2377;51.734;8.950;2024-01-07T05:37:07;17.93;;;10.73;;
4726;SDS011;2377;51.734;8.950;2024-01-07T05:39:34;19.47;;;12.77;;
4726;SDS011;2377;51.734;8.950;2024-01-07T05:42:02;20.17;;;11.60;;
4726;SDS011;2377;51.734;8.950;2024-01-07T05:44:29;19.50;;;12.20;;
4726;SDS011;2377;51.734;8.950;2024-01-07T05:46:56;20.53;;;12.60;;
4726;SDS011;2377;51.734;8.950;2024-01-07T05:49:23;19.80;;;11.87;;
4726;SDS011;2377;51.734;8.950;2024-01-07T05:51:52;18.43;;;11.40;;
4726;SDS011;2377;51.734;8.950;2024-01-07T05:54:19;19.73;;;11.30;;
4726;SDS011;2377;51.734;8.950;2024-01-07T05:56:47;17.27;;;10.97;;
4726;SDS011;2377;51.734;8.950;2024-01-07T05:59:14;22.20;;;11.97;;
4726;SDS011;2377;51.734;8.950;2024-01-07T06:01:41;18.67;;;11.03;;
4726;SDS011;2377;51.734;8.950;2024-01-07T06:04:08;22.10;;;11.80;;
4726;SDS011;2377;51.734;8.950;2024-01-07T06:06:35;15.53;;;9.90;;
4726;SDS011;2377;51.734;8.950;2024-01-07T06:09:04;15.33;;;10.47;;
4726;SDS011;2377;51.734;8.950;2024-01-07T06:11:31;17.77;;;11.03;;
4726;SDS011;2377;51.734;8.950;2024-01-07T06:13:58;16.90;;;10.67;;
4726;SDS011;2377;51.734;8.950;2024-01-07T06:16:25;12.93;;;9.17;;
4726;SDS011;2377;51.734;8.950;2024-01-07T06:18:52;15.53;;;9.70;;
4726;SDS011;2377;51.734;8.950;2024-01-07T06:21:19;15.27;;;9.80;;
4726;SDS011;2377;51.734;8.950;2024-01-07T06:23:47;15.70;;;10.13;;
4726;SDS011;2377;51.734;8.950;2024-01-07T06:26:16;18.27;;;10.83;;
4726;SDS011;2377;51.734;8.950;2024-01-07T06:28:43;23.20;;;13.30;;
4726;SDS011;2377;51.734;8.950;2024-01-07T06:31:10;18.97;;;11.13;;
4726;SDS011;2377;51.734;8.950;2024-01-07T06:33:37;16.30;;;10.20;;
4726;SDS011;2377;51.734;8.950;2024-01-07T06:36:05;20.30;;;13.20;;
4726;SDS011;2377;51.734;8.950;2024-01-07T06:38:32;18.80;;;12.40;;
4726;SDS011;2377;51.734;8.950;2024-01-07T06:41:00;16.70;;;9.80;;
4726;SDS011;2377;51.734;8.950;2024-01-07T06:43:31;17.73;;;11.40;;
4726;SDS011;2377;51.734;8.950;2024-01-07T06:45:58;16.57;;;11.03;;
4726;SDS011;2377;51.734;8.950;2024-01-07T06:48:25;16.90;;;10.60;;
4726;SDS011;2377;51.734;8.950;2024-01-07T06:50:52;14.47;;;10.43;;
4726;SDS011;2377;51.734;8.950;2024-01-07T06:53:20;13.90;;;9.87;;
4726;SDS011;2377;51.734;8.950;2024-01-07T06:55:47;14.53;;;8.67;;
4726;SDS011;2377;51.734;8.950;2024-01-07T06:58:14;17.30;;;9.30;;
4726;SDS011;2377;51.734;8.950;2024-01-07T07:00:42;17.23;;;10.07;;
4726;SDS011;2377;51.734;8.950;2024-01-07T07:03:09;16.27;;;10.20;;
4726;SDS011;2377;51.734;8.950;2024-01-07T07:05:37;16.70;;;9.73;;
4726;SDS011;2377;51.734;8.950;2024-01-07T07:08:04;14.50;;;8.80;;
4726;SDS011;2377;51.734;8.950;2024-01-07T07:10:32;18.47;;;9.43;;
4726;SDS011;2377;51.734;8.950;2024-01-07T07:12:59;12.33;;;8.70;;
4726;SDS011;2377;51.734;8.950;2024-01-07T07:15:26;13.33;;;7.37;;
4726;SDS011;2377;51.734;8.950;2024-01-07T07:17:55;11.37;;;7.10;;
4726;SDS011;2377;51.734;8.950;2024-01-07T07:20:22;15.10;;;9.00;;
4726;SDS011;2377;51.734;8.950;2024-01-07T07:22:49;13.60;;;8.47;;
4726;SDS011;2377;51.734;8.950;2024-01-07T07:25:16;17.57;;;10.07;;
4726;SDS011;2377;51.734;8.950;2024-01-07T07:27:43;15.83;;;9.67;;
4726;SDS011;2377;51.734;8.950;2024-01-07T07:30:10;13.30;;;8.00;;
4726;SDS011;2377;51.734;8.950;2024-01-07T07:32:38;13.37;;;7.87;;
4726;SDS011;2377;51.734;8.950;2024-01-07T07:35:08;11.70;;;7.83;;
4726;SDS011;2377;51.734;8.950;2024-01-07T07:37:36;13.23;;;7.97;;
4726;SDS011;2377;51.734;8.950;2024-01-07T07:40:04;13.80;;;8.63;;
4726;SDS011;2377;51.734;8.950;2024-01-07T07:42:32;13.60;;;8.20;;
4726;SDS011;2377;51.734;8.950;2024-01-07T07:44:59;15.37;;;8.13;;
4726;SDS011;2377;51.734;8.950;2024-01-07T07:47:27;12.17;;;7.03;;
4726;SDS011;2377;51.734;8.950;2024-01-07T07:49:54;13.40;;;7.93;;
4726;SDS011;2377;51.734;8.950;2024-01-07T07:52:23;16.17;;;7.87;;
4726;SDS011;2377;51.734;8.950;2024-01-07T07:54:50;13.70;;;7.53;;
4726;SDS011;2377;51.734;8.950;2024-01-07T07:57:18;10.07;;;6.30;;
4726;SDS011;2377;51.734;8.950;2024-01-07T07:59:45;14.17;;;6.70;;
4726;SDS011;2377;51.734;8.950;2024-01-07T08:02:12;12.57;;;6.50;;
4726;SDS011;2377;51.734;8.950;2024-01-07T08:04:39;10.07;;;6.40;;
4726;SDS011;2377;51.734;8.950;2024-01-07T08:07:07;13.83;;;6.20;;
4726;SDS011;2377;51.734;8.950;2024-01-07T08:09:36;9.80;;;6.23;;
4726;SDS011;2377;51.734;8.950;2024-01-07T08:12:03;10.83;;;6.90;;
4726;SDS011;2377;51.734;8.950;2024-01-07T08:14:31;9.57;;;5.20;;
4726;SDS011;2377;51.734;8.950;2024-01-07T08:17:00;10.90;;;5.37;;
4726;SDS011;2377;51.734;8.950;2024-01-07T08:19:29;10.27;;;6.60;;
4726;SDS011;2377;51.734;8.950;2024-01-07T08:21:57;10.67;;;6.10;;
4726;SDS011;2377;51.734;8.950;2024-01-07T08:24:24;7.73;;;4.90;;
4726;SDS011;2377;51.734;8.950;2024-01-07T08:26:52;9.30;;;4.80;;
4726;SDS011;2377;51.734;8.950;2024-01-07T08:29:19;7.60;;;5.27;;
4726;SDS011;2377;51.734;8.950;2024-01-07T08:31:47;8.10;;;5.10;;
4726;SDS011;2377;51.734;8.950;2024-01-07T08:34:14;8.43;;;5.20;;
4726;SDS011;2377;51.734;8.950;2024-01-07T08:36:41;9.07;;;5.33;;
4726;SDS011;2377;51.734;8.950;2024-01-07T08:39:08;7.50;;;4.40;;
4726;SDS011;2377;51.734;8.950;2024-01-07T08:41:36;10.93;;;5.20;;
4726;SDS011;2377;51.734;8.950;2024-01-07T08:44:04;9.50;;;5.33;;
4726;SDS011;2377;51.734;8.950;2024-01-07T08:46:33;9.17;;;4.83;;
4726;SDS011;2377;51.734;8.950;2024-01-07T08:49:01;7.57;;;4.50;;
4726;SDS011;2377;51.734;8.950;2024-01-07T08:51:28;8.03;;;5.07;;
4726;SDS011;2377;51.734;8.950;2024-01-07T08:53:57;18.83;;;13.10;;
4726;SDS011;2377;51.734;8.950;2024-01-07T08:56:24;11.30;;;6.80;;
4726;SDS011;2377;51.734;8.950;2024-01-07T08:58:51;6.57;;;5.27;;
4726;SDS011;2377;51.734;8.950;2024-01-07T09:01:19;7.90;;;5.37;;
4726;SDS011;2377;51.734;8.950;2024-01-07T09:03:47;7.73;;;5.77;;
4726;SDS011;2377;51.734;8.950;2024-01-07T09:06:14;6.93;;;5.43;;
4726;SDS011;2377;51.734;8.950;2024-01-07T09:08:41;7.53;;;4.70;;
4726;SDS011;2377;51.734;8.950;2024-01-07T09:11:08;7.37;;;5.33;;
4726;SDS011;2377;51.734;8.950;2024-01-07T09:13:38;5.23;;;4.10;;
4726;SDS011;2377;51.734;8.950;2024-01-07T09:16:05;8.53;;;5.33;;
4726;SDS011;2377;51.734;8.950;2024-01-07T09:18:36;7.07;;;5.40;;
4726;SDS011;2377;51.734;8.950;2024-01-07T09:21:03;6.73;;;4.53;;
4726;SDS011;2377;51.734;8.950;2024-01-07T09:23:31;6.23;;;4.30;;
4726;SDS011;2377;51.734;8.950;2024-01-07T09:25:58;9.80;;;4.83;;
4726;SDS011;2377;51.734;8.950;2024-01-07T09:28:27;4.57;;;3.90;;
4726;SDS011;2377;51.734;8.950;2024-01-07T09:30:54;4.43;;;3.60;;
4726;SDS011;2377;51.734;8.950;2024-01-07T09:33:21;6.37;;;4.17;;
4726;SDS011;2377;51.734;8.950;2024-01-07T09:35:50;7.13;;;4.20;;
4726;SDS011;2377;51.734;8.950;2024-01-07T09:38:17;6.53;;;4.60;;
4726;SDS011;2377;51.734;8.950;2024-01-07T09:40:44;4.80;;;3.93;;
4726;SDS011;2377;51.734;8.950;2024-01-07T09:43:11;6.63;;;4.33;;
4726;SDS011;2377;51.734;8.950;2024-01-07T09:45:39;4.53;;;3.70;;
4726;SDS011;2377;51.734;8.950;2024-01-07T09:48:10;7.67;;;4.03;;
4726;SDS011;2377;51.734;8.950;2024-01-07T09:50:37;4.97;;;3.80;;
4726;SDS011;2377;51.734;8.950;2024-01-07T09:53:06;7.67;;;4.03;;
4726;SDS011;2377;51.734;8.950;2024-01-07T09:55:46;7.57;;;4.03;;
4726;SDS011;2377;51.734;8.950;2024-01-07T09:58:23;6.23;;;4.70;;
4726;SDS011;2377;51.734;8.950;2024-01-07T10:00:52;11.73;;;4.57;;
4726;SDS011;2377;51.734;8.950;2024-01-07T10:03:22;4.83;;;4.10;;
4726;SDS011;2377;51.734;8.950;2024-01-07T10:05:49;5.27;;;3.80;;
4726;SDS011;2377;51.734;8.950;2024-01-07T10:08:18;4.90;;;3.60;;
4726;SDS011;2377;51.734;8.950;2024-01-07T10:10:46;6.50;;;4.00;;
4726;SDS011;2377;51.734;8.950;2024-01-07T10:13:15;5.07;;;3.20;;
4726;SDS011;2377;51.734;8.950;2024-01-07T10:15:42;5.10;;;3.50;;
4726;SDS011;2377;51.734;8.950;2024-01-07T10:18:09;6.27;;;4.10;;
4726;SDS011;2377;51.734;8.950;2024-01-07T10:20:36;6.30;;;4.40;;
4726;SDS011;2377;51.734;8.950;2024-01-07T10:23:03;5.63;;;3.80;;
4726;SDS011;2377;51.734;8.950;2024-01-07T10:25:34;4.23;;;3.43;;
4726;SDS011;2377;51.734;8.950;2024-01-07T10:28:05;9.17;;;3.50;;
4726;SDS011;2377;51.734;8.950;2024-01-07T10:30:32;8.77;;;3.70;;
4726;SDS011;2377;51.734;8.950;2024-01-07T10:32:59;4.00;;;3.10;;
4726;SDS011;2377;51.734;8.950;2024-01-07T10:35:27;4.43;;;3.40;;
4726;SDS011;2377;51.734;8.950;2024-01-07T10:37:59;4.03;;;3.43;;
4726;SDS011;2377;51.734;8.950;2024-01-07T10:40:27;5.13;;;3.40;;
4726;SDS011;2377;51.734;8.950;2024-01-07T10:42:56;5.10;;;3.30;;
4726;SDS011;2377;51.734;8.950;2024-01-07T10:45:24;4.40;;;3.30;;
4726;SDS011;2377;51.734;8.950;2024-01-07T10:47:55;5.87;;;3.50;;
4726;SDS011;2377;51.734;8.950;2024-01-07T10:50:26;4.10;;;3.27;;
4726;SDS011;2377;51.734;8.950;2024-01-07T10:52:57;7.90;;;3.03;;
4726;SDS011;2377;51.734;8.950;2024-01-07T10:55:30;3.17;;;2.60;;
4726;SDS011;2377;51.734;8.950;2024-01-07T10:58:03;4.47;;;2.93;;
4726;SDS011;2377;51.734;8.950;2024-01-07T11:00:31;5.30;;;3.10;;
4726;SDS011;2377;51.734;8.950;2024-01-07T11:03:02;4.33;;;3.10;;
4726;SDS011;2377;51.734;8.950;2024-01-07T11:05:39;3.90;;;3.07;;
4726;SDS011;2377;51.734;8.950;2024-01-07T11:08:26;4.27;;;2.90;;
4726;SDS011;2377;51.734;8.950;2024-01-07T11:11:03;7.00;;;3.20;;
4726;SDS011;2377;51.734;8.950;2024-01-07T11:13:40;4.50;;;2.70;;
4726;SDS011;2377;51.734;8.950;2024-01-07T11:16:08;3.97;;;2.67;;
4726;SDS011;2377;51.734;8.950;2024-01-07T11:18:37;3.30;;;2.60;;
4726;SDS011;2377;51.734;8.950;2024-01-07T11:21:06;7.80;;;3.30;;
4726;SDS011;2377;51.734;8.950;2024-01-07T11:23:34;3.50;;;2.80;;
4726;SDS011;2377;51.734;8.950;2024-01-07T11:26:05;3.23;;;2.80;;
4726;SDS011;2377;51.734;8.950;2024-01-07T11:28:45;3.23;;;2.93;;
4726;SDS011;2377;51.734;8.950;2024-01-07T11:31:17;3.43;;;3.00;;
4726;SDS011;2377;51.734;8.950;2024-01-07T11:33:47;4.10;;;3.07;;
4726;SDS011;2377;51.734;8.950;2024-01-07T11:36:15;3.90;;;2.83;;
4726;SDS011;2377;51.734;8.950;2024-01-07T11:38:44;3.77;;;2.73;;
4726;SDS011;2377;51.734;8.950;2024-01-07T11:41:15;4.63;;;3.80;;
4726;SDS011;2377;51.734;8.950;2024-01-07T11:43:54;4.83;;;3.80;;
4726;SDS011;2377;51.734;8.950;2024-01-07T11:46:24;4.13;;;3.00;;
4726;SDS011;2377;51.734;8.950;2024-01-07T11:48:52;4.10;;;3.50;;
4726;SDS011;2377;51.734;8.950;2024-01-07T11:51:23;2.97;;;2.67;;
4726;SDS011;2377;51.734;8.950;2024-01-07T11:53:51;4.00;;;3.10;;
4726;SDS011;2377;51.734;8.950;2024-01-07T11:56:19;6.83;;;3.63;;
4726;SDS011;2377;51.734;8.950;2024-01-07T11:58:46;5.93;;;3.10;;
4726;SDS011;2377;51.734;8.950;2024-01-07T12:01:15;4.97;;;3.40;;
4726;SDS011;2377;51.734;8.950;2024-01-07T12:03:43;3.37;;;3.07;;
4726;SDS011;2377;51.734;8.950;2024-01-07T12:06:10;4.27;;;3.80;;
4726;SDS011;2377;51.734;8.950;2024-01-07T12:08:39;5.90;;;3.87;;
4726;SDS011;2377;51.734;8.950;2024-01-07T12:11:06;4.30;;;3.63;;
4726;SDS011;2377;51.734;8.950;2024-01-07T12:13:35;18.03;;;13.00;;
4726;SDS011;2377;51.734;8.950;2024-01-07T12:16:04;10.10;;;6.63;;
4726;SDS011;2377;51.734;8.950;2024-01-07T12:18:33;4.80;;;3.90;;
4726;SDS011;2377;51.734;8.950;2024-01-07T12:21:03;6.60;;;4.70;;
4726;SDS011;2377;51.734;8.950;2024-01-07T12:23:33;6.23;;;3.40;;
4726;SDS011;2377;51.734;8.950;2024-01-07T12:26:06;7.03;;;4.03;;
4726;SDS011;2377;51.734;8.950;2024-01-07T12:28:34;7.27;;;3.93;;
4726;SDS011;2377;51.734;8.950;2024-01-07T12:31:02;4.30;;;3.47;;
4726;SDS011;2377;51.734;8.950;2024-01-07T12:33:31;7.70;;;3.53;;
4726;SDS011;2377;51.734;8.950;2024-01-07T12:36:00;10.20;;;4.00;;
4726;SDS011;2377;51.734;8.950;2024-01-07T12:38:28;7.40;;;4.30;;
4726;SDS011;2377;51.734;8.950;2024-01-07T12:40:55;6.57;;;3.70;;
4726;SDS011;2377;51.734;8.950;2024-01-07T12:43:23;8.20;;;4.50;;
4726;SDS011;2377;51.734;8.950;2024-01-07T12:45:50;6.93;;;4.33;;
4726;SDS011;2377;51.734;8.950;2024-01-07T12:48:18;6.73;;;4.40;;
4726;SDS011;2377;51.734;8.950;2024-01-07T12:50:46;6.43;;;3.90;;
4726;SDS011;2377;51.734;8.950;2024-01-07T12:53:13;7.30;;;4.63;;
4726;SDS011;2377;51.734;8.950;2024-01-07T12:55:41;8.63;;;4.00;;
4726;SDS011;2377;51.734;8.950;2024-01-07T12:58:09;5.73;;;4.80;;
4726;SDS011;2377;51.734;8.950;2024-01-07T13:00:36;6.17;;;3.73;;
4726;SDS011;2377;51.734;8.950;2024-01-07T13:03:04;6.90;;;4.33;;
4726;SDS011;2377;51.734;8.950;2024-01-07T13:05:32;5.00;;;4.20;;
4726;SDS011;2377;51.734;8.950;2024-01-07T13:08:01;6.00;;;3.83;;
4726;SDS011;2377;51.734;8.950;2024-01-07T13:10:29;6.37;;;4.60;;
4726;SDS011;2377;51.734;8.950;2024-01-07T13:12:59;8.27;;;4.77;;
4726;SDS011;2377;51.734;8.950;2024-01-07T13:15:26;5.67;;;4.27;;
4726;SDS011;2377;51.734;8.950;2024-01-07T13:17:53;6.50;;;4.80;;
4726;SDS011;2377;51.734;8.950;2024-01-07T13:20:40;6.67;;;4.87;;
4726;SDS011;2377;51.734;8.950;2024-01-07T13:23:39;8.90;;;5.30;;
4726;SDS011;2377;51.734;8.950;2024-01-07T13:26:09;10.10;;;5.37;;
4726;SDS011;2377;51.734;8.950;2024-01-07T13:28:36;8.67;;;4.60;;
4726;SDS011;2377;51.734;8.950;2024-01-07T13:31:03;7.50;;;5.43;;
4726;SDS011;2377;51.734;8.950;2024-01-07T13:33:31;8.37;;;5.40;;
4726;SDS011;2377;51.734;8.950;2024-01-07T13:35:59;9.13;;;5.30;;
4726;SDS011;2377;51.734;8.950;2024-01-07T13:38:28;8.40;;;5.60;;
4726;SDS011;2377;51.734;8.950;2024-01-07T13:40:57;11.57;;;5.80;;
4726;SDS011;2377;51.734;8.950;2024-01-07T13:43:24;8.20;;;5.00;;
4726;SDS011;2377;51.734;8.950;2024-01-07T13:45:54;9.87;;;6.57;;
4726;SDS011;2377;51.734;8.950;2024-01-07T13:48:21;8.13;;;5.40;;
4726;SDS011;2377;51.734;8.950;2024-01-07T13:50:48;9.17;;;5.23;;
4726;SDS011;2377;51.734;8.950;2024-01-07T13:53:15;7.50;;;5.23;;
4726;SDS011;2377;51.734;8.950;2024-01-07T13:55:42;7.10;;;5.53;;
4726;SDS011;2377;51.734;8.950;2024-01-07T13:58:12;8.03;;;5.50;;
4726;SDS011;2377;51.734;8.950;2024-01-07T14:00:40;6.93;;;5.17;;
4726;SDS011;2377;51.734;8.950;2024-01-07T14:03:07;6.57;;;4.47;;
4726;SDS011;2377;51.734;8.950;2024-01-07T14:05:34;5.87;;;5.23;;
4726;SDS011;2377;51.734;8.950;2024-01-07T14:08:01;5.70;;;4.43;;
4726;SDS011;2377;51.734;8.950;2024-01-07T14:10:30;6.00;;;4.53;;
4726;SDS011;2377;51.734;8.950;2024-01-07T14:12:57;6.87;;;4.57;;
4726;SDS011;2377;51.734;8.950;2024-01-07T14:15:26;4.47;;;4.00;;
4726;SDS011;2377;51.734;8.950;2024-01-07T14:17:53;5.87;;;4.57;;
4726;SDS011;2377;51.734;8.950;2024-01-07T14:20:20;6.37;;;4.93;;
4726;SDS011;2377;51.734;8.950;2024-01-07T14:22:47;7.27;;;4.60;;
4726;SDS011;2377;51.734;8.950;2024-01-07T14:25:15;6.07;;;4.50;;
4726;SDS011;2377;51.734;8.950;2024-01-07T14:27:42;7.33;;;4.90;;
4726;SDS011;2377;51.734;8.950;2024-01-07T14:30:10;7.53;;;4.60;;
4726;SDS011;2377;51.734;8.950;2024-01-07T14:32:39;6.23;;;4.07;;
4726;SDS011;2377;51.734;8.950;2024-01-07T14:35:07;4.63;;;4.13;;
4726;SDS011;2377;51.734;8.950;2024-01-07T14:37:35;6.47;;;4.27;;
4726;SDS011;2377;51.734;8.950;2024-01-07T14:40:06;5.10;;;4.03;;
4726;SDS011;2377;51.734;8.950;2024-01-07T14:42:34;5.67;;;4.03;;
4726;SDS011;2377;51.734;8.950;2024-01-07T14:45:01;5.67;;;3.90;;
4726;SDS011;2377;51.734;8.950;2024-01-07T14:47:29;5.63;;;4.13;;
4726;SDS011;2377;51.734;8.950;2024-01-07T14:49:58;6.43;;;4.27;;
4726;SDS011;2377;51.734;8.950;2024-01-07T14:52:26;4.97;;;4.30;;
4726;SDS011;2377;51.734;8.950;2024-01-07T14:54:53;7.63;;;4.57;;
4726;SDS011;2377;51.734;8.950;2024-01-07T14:57:21;4.80;;;4.30;;
4726;SDS011;2377;51.734;8.950;2024-01-07T14:59:49;5.50;;;4.20;;
4726;SDS011;2377;51.734;8.950;2024-01-07T15:02:17;7.30;;;4.47;;
4726;SDS011;2377;51.734;8.950;2024-01-07T15:04:44;4.43;;;3.70;;
4726;SDS011;2377;51.734;8.950;2024-01-07T15:07:15;7.23;;;4.27;;
4726;SDS011;2377;51.734;8.950;2024-01-07T15:09:42;4.80;;;3.73;;